| time (UTC) | temp C | wind direction | speed KPH | gust KPH | rain 1hr cm | rain 24hr cm | rain mn cm | humidity % | barometer mb |
| 20260906083042 | 21 | 0 | 0.0 | 0.0 | 0.00 | 0.00 | 0.00 | 95 | 1012.8 |
| 20260906081546 | 21 | 0 | 0.0 | 0.0 | 0.00 | 0.00 | 0.00 | 95 | 1012.7 |
| 20260906080044 | 21 | 0 | 0.0 | 4.8 | 0.00 | 0.00 | 0.00 | 95 | 1012.6 |
| 20260906074544 | 21 | 269 | 1.6 | 4.8 | 0.00 | 0.00 | 0.00 | 95 | 1012.5 |
| 20260906073043 | 21 | 269 | 1.6 | 3.2 | 0.00 | 0.00 | 0.00 | 95 | 1012.6 |
| 20260906071557 | 21 | 269 | 0.0 | 4.8 | 0.00 | 0.00 | 0.00 | 95 | 1012.6 |
| 20260906070042 | 21 | 0 | 0.0 | 1.6 | 0.00 | 0.00 | 0.00 | 95 | 1012.7 |
| 20260906064545 | 21 | 0 | 0.0 | 3.2 | 0.00 | 0.00 | 0.00 | 94 | 1012.5 |
| 20260906063053 | 21 | 0 | 0.0 | 3.2 | 0.00 | 0.00 | 0.00 | 95 | 1012.8 |
| 20260906061543 | 21 | 269 | 0.0 | 3.2 | 0.00 | 0.00 | 0.00 | 95 | 1013.1 |
| 20260906060042 | 21 | 0 | 0.0 | 4.8 | 0.00 | 0.00 | 0.00 | 94 | 1013.1 |
| 20260906054546 | 21 | 269 | 0.0 | 3.2 | 0.00 | 0.00 | 0.00 | 94 | 1013.3 |
| 20260906053050 | 21 | 269 | 3.2 | 6.4 | 0.00 | 0.00 | 0.00 | 94 | 1013.5 |
| 20260906051543 | 21 | 269 | 1.6 | 3.2 | 0.00 | 0.00 | 0.00 | 94 | 1013.5 |
| 20260906050044 | 22 | 269 | 0.0 | 3.2 | 0.00 | 0.00 | 0.00 | 93 | 1013.7 |
| 20260906044546 | 22 | 269 | 1.6 | 4.8 | 0.00 | 0.00 | 0.00 | 93 | 1013.7 |
| 20260906043043 | 22 | 0 | 0.0 | 3.2 | 0.00 | 0.00 | 0.00 | 93 | 1013.7 |
| 20260906041542 | 22 | 0 | 0.0 | 3.2 | 0.00 | 0.00 | 0.00 | 93 | 1013.8 |
| 20260906040047 | 22 | 0 | 0.0 | 6.4 | 0.00 | 0.00 | 0.00 | 92 | 1013.8 |
| 20260906034547 | 22 | 267 | 0.0 | 3.2 | 0.00 | 0.00 | 0.00 | 92 | 1013.8 |
| 20260906033044 | 22 | 267 | 1.6 | 4.8 | 0.00 | 0.00 | 0.00 | 92 | 1013.8 |
| 20260906031550 | 22 | 267 | 0.0 | 4.8 | 0.00 | 0.00 | 0.00 | 91 | 1013.7 |
| 20260906030046 | 22 | 272 | 1.6 | 6.4 | 0.00 | 0.00 | 0.00 | 90 | 1013.8 |
| 20260906024558 | 23 | 0 | 1.6 | 4.8 | 0.00 | 0.00 | 0.00 | 90 | 1013.5 |
| 20260906023043 | 23 | 0 | 0.0 | 3.2 | 0.00 | 0.00 | 0.00 | 89 | 1013.4 |
| 20260906021552 | 23 | 284 | 1.6 | 4.8 | 0.00 | 0.00 | 0.00 | 89 | 1013.5 |
| 20260906020050 | 23 | 174 | 1.6 | 4.8 | 0.00 | 0.00 | 0.00 | 88 | 1013.6 |
| 20260906014552 | 23 | 173 | 3.2 | 8.0 | 0.00 | 0.00 | 0.00 | 87 | 1013.6 |
| 20260906013045 | 24 | 208 | 0.0 | 3.2 | 0.00 | 0.00 | 0.00 | 86 | 1013.5 |
| 20260906011545 | 24 | 210 | 1.6 | 4.8 | 0.00 | 0.00 | 0.00 | 84 | 1013.3 |
| 20260906010043 | 25 | 0 | 0.0 | 4.8 | 0.00 | 0.00 | 0.00 | 83 | 1013.1 |
| 20260906004549 | 25 | 225 | 1.6 | 4.8 | 0.00 | 0.00 | 0.00 | 82 | 1013.1 |
| 20260906003102 | 26 | 0 | 0.0 | 3.2 | 0.00 | 0.00 | 0.00 | 80 | 1012.8 |
| 20260906001545 | 26 | 281 | 1.6 | 4.8 | 0.00 | 0.00 | 0.00 | 80 | 1012.7 |
| 20260906000043 | 26 | 281 | 3.2 | 6.4 | 0.00 | 0.00 | 0.00 | 77 | 1012.7 |
| 20260905234541 | 27 | 288 | 3.2 | 4.8 | 0.00 | 0.00 | 0.00 | 76 | 1012.4 |
| 20260905233043 | 27 | 288 | 3.2 | 4.8 | 0.00 | 0.00 | 0.00 | 76 | 1012.6 |
| 20260905231544 | 27 | 288 | 1.6 | 6.4 | 0.00 | 0.00 | 0.00 | 74 | 1012.7 |
| 20260905230049 | 27 | 271 | 4.8 | 9.7 | 0.00 | 0.00 | 0.00 | 72 | 1012.7 |
| 20260905224542 | 27 | 317 | 0.0 | 4.8 | 0.00 | 0.00 | 0.00 | 71 | 1012.5 |
| 20260905223041 | 27 | 317 | 1.6 | 4.8 | 0.00 | 0.00 | 0.00 | 72 | 1012.4 |
| 20260905221545 | 27 | 311 | 4.8 | 9.7 | 0.00 | 0.00 | 0.00 | 73 | 1012.5 |
| 20260905220045 | 27 | 305 | 4.8 | 8.0 | 0.00 | 0.00 | 0.00 | 73 | 1012.6 |
| 20260905214546 | 27 | 65 | 1.6 | 11.3 | 0.00 | 0.00 | 0.00 | 73 | 1012.7 |
| 20260905213045 | 28 | 0 | 0.0 | 4.8 | 0.00 | 0.00 | 0.00 | 71 | 1013.2 |
| 20260905211607 | 28 | 138 | 3.2 | 12.9 | 0.00 | 0.00 | 0.00 | 70 | 1013.2 |
| 20260905210042 | 28 | 0 | 0.0 | 6.4 | 0.00 | 0.00 | 0.00 | 72 | 1013.4 |
| 20260905204556 | 28 | 142 | 1.6 | 8.0 | 0.00 | 0.00 | 0.00 | 70 | 1012.8 |
| 20260905203053 | 28 | 88 | 1.6 | 4.8 | 0.00 | 0.00 | 0.00 | 66 | 1013.0 |
| 20260905201545 | 28 | 161 | 0.0 | 12.9 | 0.00 | 0.00 | 0.00 | 65 | 1013.6 |
| 20260905200051 | 28 | 308 | 4.8 | 19.3 | 0.00 | 0.00 | 0.00 | 64 | 1013.6 |
| 20260905194550 | 28 | 30 | 6.4 | 16.1 | 0.00 | 0.00 | 0.00 | 65 | 1013.9 |
| 20260905193058 | 30 | 360 | 14.5 | 25.7 | 0.00 | 0.00 | 0.00 | 62 | 1013.6 |
| 20260905191551 | 31 | 340 | 12.9 | 32.2 | 0.00 | 0.00 | 0.00 | 55 | 1013.4 |
| 20260905190046 | 35 | 90 | 3.2 | 9.7 | 0.00 | 0.00 | 0.00 | 48 | 1013.1 |
| 20260905184550 | 35 | 86 | 3.2 | 12.9 | 0.00 | 0.00 | 0.00 | 47 | 1012.3 |
| 20260905183045 | 36 | 108 | 4.8 | 12.9 | 0.00 | 0.00 | 0.00 | 47 | 1012.5 |
| 20260905181544 | 36 | 97 | 4.8 | 14.5 | 0.00 | 0.00 | 0.00 | 48 | 1012.6 |
| 20260905180048 | 36 | 304 | 3.2 | 16.1 | 0.00 | 0.00 | 0.00 | 46 | 1013.2 |
| 20260905174544 | 35 | 85 | 3.2 | 12.9 | 0.00 | 0.00 | 0.00 | 50 | 1013.3 |
| 20260905173041 | 35 | 204 | 3.2 | 16.1 | 0.00 | 0.00 | 0.00 | 51 | 1013.5 |
| 20260905171546 | 35 | 140 | 8.0 | 17.7 | 0.00 | 0.00 | 0.00 | 51 | 1013.5 |
| 20260905170047 | 35 | 128 | 3.2 | 11.3 | 0.00 | 0.00 | 0.00 | 53 | 1013.5 |
| 20260905164543 | 35 | 311 | 4.8 | 14.5 | 0.00 | 0.00 | 0.00 | 53 | 1013.8 |
| 20260905163047 | 35 | 246 | 1.6 | 4.8 | 0.00 | 0.00 | 0.00 | 55 | 1014.2 |
| 20260905161544 | 33 | 117 | 3.2 | 12.9 | 0.00 | 0.00 | 0.00 | 57 | 1014.4 |
| 20260905160049 | 34 | 251 | 1.6 | 6.4 | 0.00 | 0.00 | 0.00 | 57 | 1014.4 |
| 20260905154554 | 33 | 5 | 3.2 | 11.3 | 0.00 | 0.00 | 0.00 | 61 | 1014.6 |
| 20260905153044 | 32 | 267 | 3.2 | 8.0 | 0.00 | 0.00 | 0.00 | 62 | 1014.9 |
| 20260905151545 | 32 | 317 | 3.2 | 8.0 | 0.00 | 0.00 | 0.00 | 64 | 1015.0 |
| 20260905150049 | 32 | 278 | 3.2 | 11.3 | 0.00 | 0.00 | 0.00 | 65 | 1014.9 |
| 20260905144549 | 31 | 319 | 4.8 | 9.7 | 0.00 | 0.00 | 0.00 | 69 | 1014.9 |
| 20260905143049 | 30 | 260 | 1.6 | 6.4 | 0.00 | 0.00 | 0.00 | 72 | 1015.0 |
| 20260905141546 | 29 | 292 | 1.6 | 6.4 | 0.00 | 0.00 | 0.00 | 75 | 1015.2 |
| 20260905140048 | 28 | 0 | 0.0 | 6.4 | 0.00 | 0.00 | 0.00 | 77 | 1015.4 |
| 20260905134543 | 27 | 315 | 3.2 | 12.9 | 0.00 | 0.00 | 0.00 | 81 | 1015.7 |
| 20260905133049 | 27 | 311 | 3.2 | 11.3 | 0.00 | 0.00 | 0.00 | 83 | 1015.7 |
| 20260905131551 | 26 | 315 | 3.2 | 9.7 | 0.00 | 0.00 | 0.00 | 85 | 1015.6 |
| 20260905130042 | 26 | 265 | 3.2 | 9.7 | 0.00 | 0.00 | 0.00 | 90 | 1015.5 |
| 20260905124543 | 23 | 0 | 0.0 | 3.2 | 0.00 | 0.00 | 0.00 | 97 | 1015.6 |
| 20260905123042 | 23 | 0 | 0.0 | 3.2 | 0.00 | 0.00 | 0.00 | 97 | 1015.5 |
| 20260905121544 | 22 | 197 | 1.6 | 3.2 | 0.00 | 0.00 | 0.00 | 97 | 1015.5 |
| 20260905120043 | 22 | 196 | 1.6 | 3.2 | 0.00 | 0.00 | 0.00 | 97 | 1015.1 |
| 20260905114545 | 22 | 194 | 1.6 | 4.8 | 0.00 | 0.00 | 0.00 | 96 | 1015.0 |
| 20260905113044 | 22 | 0 | 0.0 | 0.0 | 0.00 | 0.00 | 0.00 | 96 | 1015.0 |
| 20260905111557 | 22 | 0 | 0.0 | 3.2 | 0.00 | 0.00 | 0.00 | 96 | 1014.6 |
| 20260905110041 | 22 | 0 | 0.0 | 0.0 | 0.00 | 0.00 | 0.00 | 96 | 1014.4 |
| 20260905104547 | 22 | 0 | 0.0 | 0.0 | 0.00 | 0.00 | 0.00 | 96 | 1014.3 |
| 20260905103045 | 22 | 0 | 0.0 | 0.0 | 0.00 | 0.00 | 0.00 | 96 | 1014.1 |
| 20260905101546 | 22 | 0 | 0.0 | 1.6 | 0.00 | 0.00 | 0.00 | 96 | 1014.2 |
| 20260905100042 | 22 | 0 | 0.0 | 1.6 | 0.00 | 0.00 | 0.00 | 96 | 1014.1 |
| 20260905094549 | 22 | 194 | 0.0 | 3.2 | 0.00 | 0.00 | 0.00 | 95 | 1014.0 |
| 20260905093044 | 22 | 194 | 0.0 | 1.6 | 0.00 | 0.00 | 0.00 | 96 | 1014.2 |
| 20260905091541 | 22 | 194 | 1.6 | 3.2 | 0.00 | 0.00 | 0.00 | 96 | 1014.2 |
| 20260905090047 | 22 | 194 | 1.6 | 3.2 | 0.00 | 0.00 | 0.00 | 95 | 1014.3 |
| 20260905084550 | 22 | 0 | 0.0 | 3.2 | 0.00 | 0.00 | 0.00 | 95 | 1014.2 |